Time;durP1;ratioP1;P1;durP2;ratioP2;P2;SDS_P1;SDS_P2;PMS_P1;PMS_P2;Temp;Humidity;BMP_temperature;BMP_pressure;BME280_temperature;BME280_humidity;BME280_pressure;Samples;Min_cycle;Max_cycle;Signal;HPM_P1;HPM_P2
2021/12/27 00:01:19;;;;;;;60.13;25.40;;;;;;;1.36;87.88;95320.56;5032180;28;20538;-72
2021/12/27 00:03:49;;;;;;;55.38;26.00;;;;;;;1.38;87.62;95310.31;5032713;28;20053;-72
2021/12/27 00:06:16;;;;;;;54.80;24.60;;;;;;;1.38;87.77;95309.53;5032250;28;20057;-74
2021/12/27 00:08:43;;;;;;;54.15;26.02;;;;;;;1.39;87.67;95313.81;5032608;28;20496;-72
2021/12/27 00:11:11;;;;;;;52.95;24.42;;;;;;;1.38;87.55;95307.66;5050574;28;20041;-72
2021/12/27 00:13:39;;;;;;;54.72;25.55;;;;;;;1.35;87.72;95308.19;5052547;28;20045;-72
2021/12/27 00:16:06;;;;;;;52.33;25.30;;;;;;;1.36;87.47;95300.94;5052078;28;20049;-72
2021/12/27 00:18:33;;;;;;;57.38;25.83;;;;;;;1.36;87.49;95300.94;5052260;28;20427;-74
2021/12/27 00:20:59;;;;;;;53.53;26.00;;;;;;;1.34;87.65;95297.75;5052180;28;20041;-72
2021/12/27 00:23:26;;;;;;;54.05;24.73;;;;;;;1.34;87.67;95297.75;5051675;28;20049;-72
2021/12/27 00:25:52;;;;;;;59.20;25.42;;;;;;;1.35;87.86;95299.34;5052388;28;20048;-72
2021/12/27 00:28:19;;;;;;;58.05;25.60;;;;;;;1.41;88.01;95303.56;5051899;28;20056;-73
2021/12/27 00:30:47;;;;;;;56.05;26.42;;;;;;;1.43;87.72;95296.06;5052001;28;20500;-72
2021/12/27 00:33:13;;;;;;;52.65;24.75;;;;;;;1.48;87.77;95298.69;5051515;28;20045;-72
2021/12/27 00:35:41;;;;;;;58.58;26.88;;;;;;;1.51;87.53;95308.81;5052113;28;20052;-72
2021/12/27 00:38:08;;;;;;;54.40;25.88;;;;;;;1.54;87.58;95313.63;5051717;28;20045;-72
2021/12/27 00:40:35;;;;;;;52.65;26.13;;;;;;;1.56;87.21;95312.25;5050934;28;20522;-72
2021/12/27 00:43:01;;;;;;;54.53;25.67;;;;;;;1.59;87.35;95316.25;5052211;28;20053;-72
2021/12/27 00:45:28;;;;;;;60.28;27.08;;;;;;;1.60;87.51;95312.50;5051659;28;20037;-72
2021/12/27 00:47:55;;;;;;;59.05;26.40;;;;;;;1.63;87.15;95311.94;5051769;28;20048;-72
2021/12/27 00:50:22;;;;;;;53.60;25.77;;;;;;;1.68;87.24;95319.91;5051431;28;20420;-72
2021/12/27 00:52:49;;;;;;;54.55;24.35;;;;;;;1.73;87.29;95317.19;5051563;28;20071;-73
2021/12/27 00:55:18;;;;;;;60.35;26.52;;;;;;;1.75;87.21;95314.19;5051304;28;20041;-72
2021/12/27 00:57:46;;;;;;;53.38;25.73;;;;;;;1.80;86.83;95309.56;5051534;28;20052;-72
2021/12/27 01:00:16;;;;;;;55.40;25.45;;;;;;;1.78;86.52;95309.06;5050822;28;20519;-72
2021/12/27 01:02:43;;;;;;;55.28;25.48;;;;;;;1.79;86.85;95315.22;5050824;28;20400;-72
2021/12/27 01:05:12;;;;;;;57.58;26.92;;;;;;;1.82;86.79;95314.63;5050910;28;20516;-72
2021/12/27 01:07:38;;;;;;;52.83;25.10;;;;;;;1.81;86.80;95313.84;5051440;28;20380;-72
2021/12/27 01:10:23;;;;;;;53.70;24.65;;;;;;;1.82;86.82;95307.38;5050110;28;20041;-72
2021/12/27 01:13:02;;;;;;;52.08;25.17;;;;;;;1.86;86.68;95307.59;5051532;28;20128;-72
2021/12/27 01:15:47;;;;;;;52.90;26.00;;;;;;;1.82;86.18;95315.44;5051115;28;20044;-72
2021/12/27 01:18:14;;;;;;;57.55;26.00;;;;;;;1.85;86.45;95324.00;5050764;28;20110;-72
2021/12/27 01:20:43;;;;;;;55.80;26.05;;;;;;;1.80;86.42;95317.63;5051313;28;20049;-72
2021/12/27 01:23:10;;;;;;;54.45;26.63;;;;;;;1.76;86.57;95321.94;5050558;28;20049;-72
2021/12/27 01:25:37;;;;;;;52.42;25.80;;;;;;;1.77;86.64;95328.91;5051148;28;20072;-72
2021/12/27 01:28:05;;;;;;;58.03;27.50;;;;;;;1.74;86.31;95313.41;5050953;28;20048;-71
2021/12/27 01:30:37;;;;;;;58.83;27.17;;;;;;;1.71;86.47;95313.97;5051102;28;20115;-72
2021/12/27 01:33:05;;;;;;;61.13;27.02;;;;;;;1.74;86.58;95313.41;5050625;28;20052;-72
2021/12/27 01:35:34;;;;;;;57.88;27.08;;;;;;;1.75;86.79;95306.94;5051087;28;20069;-72
2021/12/27 01:38:03;;;;;;;57.97;26.95;;;;;;;1.72;86.77;95304.84;5051142;28;20045;-73
2021/12/27 01:40:30;;;;;;;60.03;27.42;;;;;;;1.70;86.77;95296.25;5049546;28;20052;-72
2021/12/27 01:43:01;;;;;;;59.55;26.77;;;;;;;1.68;87.00;95293.09;5051006;28;20060;-72
2021/12/27 01:45:28;;;;;;;62.90;28.00;;;;;;;1.62;87.12;95291.56;5050470;28;20514;-72
2021/12/27 01:47:55;;;;;;;56.53;26.13;;;;;;;1.61;87.18;95295.28;5050819;28;20041;-72
2021/12/27 01:50:21;;;;;;;54.85;25.50;;;;;;;1.59;87.37;95296.69;5050493;28;20045;-72
2021/12/27 01:52:48;;;;;;;59.38;26.83;;;;;;;1.57;87.55;95288.94;5051001;28;20052;-72
2021/12/27 01:55:16;;;;;;;58.22;26.40;;;;;;;1.58;87.27;95287.03;5050617;28;20041;-72
2021/12/27 01:57:42;;;;;;;58.40;27.65;;;;;;;1.58;87.61;95285.16;5050865;28;20407;-72
2021/12/27 02:00:10;;;;;;;58.95;27.55;;;;;;;1.60;87.62;95285.66;5050598;28;20045;-72
2021/12/27 02:02:37;;;;;;;60.20;28.15;;;;;;;1.59;87.67;95284.06;5050765;28;20056;-72
2021/12/27 02:05:04;;;;;;;62.22;27.85;;;;;;;1.60;87.63;95284.84;5050403;28;20045;-72
2021/12/27 02:07:30;;;;;;;60.63;27.70;;;;;;;1.60;87.61;95282.97;5050784;28;20041;-72
2021/12/27 02:10:02;;;;;;;59.05;26.42;;;;;;;1.60;87.83;95277.59;5049647;28;20531;-72
2021/12/27 02:12:30;;;;;;;62.85;28.23;;;;;;;1.61;87.94;95276.50;5050922;28;20048;-73
2021/12/27 02:14:57;;;;;;;54.33;25.88;;;;;;;1.61;87.65;95281.88;5054767;28;20532;-72
2021/12/27 02:17:23;;;;;;;64.82;28.85;;;;;;;1.63;87.64;95274.34;5054255;28;20047;-72
2021/12/27 02:19:52;;;;;;;58.65;27.00;;;;;;;1.66;87.69;95270.28;5054741;28;20053;-72
2021/12/27 02:22:21;;;;;;;62.20;27.88;;;;;;;1.66;87.72;95272.97;5053813;28;20499;-72
2021/12/27 02:24:48;;;;;;;61.35;26.88;;;;;;;1.64;87.91;95273.28;5054524;28;20045;-72
2021/12/27 02:27:16;;;;;;;62.50;28.25;;;;;;;1.68;87.95;95276.19;5053961;28;20483;-72
2021/12/27 02:29:43;;;;;;;58.53;27.70;;;;;;;1.69;87.72;95278.56;5054278;28;20052;-72
2021/12/27 02:32:10;;;;;;;60.45;28.10;;;;;;;1.70;87.55;95288.22;5053841;28;20045;-72
2021/12/27 02:34:36;;;;;;;58.03;26.35;;;;;;;1.68;87.38;95289.59;5054444;28;20075;-72
2021/12/27 02:37:04;;;;;;;61.03;26.15;;;;;;;1.67;87.49;95283.44;5053715;28;20055;-72
2021/12/27 02:39:31;;;;;;;58.40;27.08;;;;;;;1.67;87.41;95285.28;5053407;28;20056;-73
2021/12/27 02:41:57;;;;;;;61.30;28.27;;;;;;;1.66;87.34;95279.13;5054055;28;20488;-72
2021/12/27 02:44:24;;;;;;;57.58;26.50;;;;;;;1.70;87.15;95285.53;5053675;28;20045;-73
2021/12/27 02:46:50;;;;;;;59.92;28.10;;;;;;;1.71;87.17;95278.28;5054055;28;20504;-72
2021/12/27 02:49:17;;;;;;;59.75;28.55;;;;;;;1.75;87.22;95280.09;5053550;28;20045;-72
2021/12/27 02:51:43;;;;;;;58.60;26.67;;;;;;;1.78;86.44;95282.22;5054018;28;20045;-72
2021/12/27 02:54:11;;;;;;;58.83;28.35;;;;;;;1.77;86.68;95288.66;5053653;28;20068;-72
2021/12/27 02:56:38;;;;;;;60.22;28.33;;;;;;;1.76;86.51;95289.75;5053838;28;20499;-72
2021/12/27 02:59:04;;;;;;;65.70;28.52;;;;;;;1.78;86.47;95281.44;5053431;28;20056;-71
2021/12/27 03:01:31;;;;;;;58.72;28.40;;;;;;;1.74;86.83;95275.03;5053667;28;20045;-72
2021/12/27 03:03:58;;;;;;;56.45;26.58;;;;;;;1.72;86.68;95283.38;5053834;28;20052;-72
2021/12/27 03:06:25;;;;;;;64.13;29.70;;;;;;;1.66;86.56;95271.09;5053341;28;20048;-72
2021/12/27 03:08:51;;;;;;;66.57;30.38;;;;;;;1.61;86.66;95278.41;5053817;28;20045;-72
2021/12/27 03:11:20;;;;;;;66.85;30.17;;;;;;;1.61;87.17;95271.16;5033323;28;20050;-72
2021/12/27 03:13:50;;;;;;;72.63;29.33;;;;;;;1.65;87.04;95277.53;5033780;28;20051;-72
2021/12/27 03:16:19;;;;;;;68.10;30.17;;;;;;;1.67;87.26;95275.38;5033068;28;20057;-72
2021/12/27 03:18:50;;;;;;;69.85;30.67;;;;;;;1.63;87.41;95279.72;5033670;28;20053;-72
2021/12/27 03:21:18;;;;;;;65.15;29.92;;;;;;;1.62;87.25;95267.41;5033061;28;20051;-72
2021/12/27 03:23:46;;;;;;;68.32;30.10;;;;;;;1.59;87.24;95261.81;5033207;28;20049;-72
2021/12/27 03:26:14;;;;;;;61.10;29.35;;;;;;;1.61;87.36;95265.78;5032303;28;20049;-72
2021/12/27 03:28:42;;;;;;;68.18;29.85;;;;;;;1.60;87.29;95264.19;5033366;28;20045;-72
2021/12/27 03:31:10;;;;;;;62.33;28.85;;;;;;;1.58;87.48;95255.63;5032891;28;20136;-72
2021/12/27 03:33:37;;;;;;;69.43;29.77;;;;;;;1.58;87.57;95255.63;5033425;28;20045;-72
2021/12/27 03:36:06;;;;;;;67.80;29.85;;;;;;;1.59;87.56;95249.19;5032977;28;20416;-71
2021/12/27 03:38:35;;;;;;;62.83;29.90;;;;;;;1.57;87.99;95243.31;5033079;28;20663;-72
2021/12/27 03:41:04;;;;;;;63.53;28.67;;;;;;;1.61;87.94;95244.31;5048932;28;20048;-71
2021/12/27 03:43:30;;;;;;;70.78;30.13;;;;;;;1.60;87.95;95245.41;5052121;28;20052;-72
2021/12/27 03:45:58;;;;;;;70.45;30.10;;;;;;;1.64;88.17;95246.44;5052995;28;20049;-72
2021/12/27 03:48:25;;;;;;;67.72;30.25;;;;;;;1.66;87.93;95243.44;5052491;28;20416;-72
2021/12/27 03:50:52;;;;;;;61.63;29.08;;;;;;;1.65;88.08;95245.34;5052933;28;20067;-73
2021/12/27 03:53:19;;;;;;;69.35;29.50;;;;;;;1.68;88.09;95242.09;5052142;28;20048;-72
2021/12/27 03:55:45;;;;;;;62.50;29.20;;;;;;;1.70;88.08;95247.16;5052735;28;20048;-72
2021/12/27 03:58:24;;;;;;;67.40;30.65;;;;;;;1.72;88.18;95240.44;5052261;28;20053;-72
2021/12/27 04:01:01;;;;;;;67.93;30.77;;;;;;;1.70;88.02;95249.84;5053038;28;20056;-72
2021/12/27 04:03:30;;;;;;;60.55;29.02;;;;;;;1.67;87.96;95245.88;5052390;28;20037;-72
2021/12/27 04:05:57;;;;;;;59.33;27.48;;;;;;;1.69;88.41;95251.75;5052850;28;20060;-72
2021/12/27 04:08:24;;;;;;;63.38;30.40;;;;;;;1.69;88.30;95251.75;5052154;28;20512;-72
2021/12/27 04:10:50;;;;;;;64.07;29.35;;;;;;;1.70;88.48;95247.16;5052550;28;20049;-72
2021/12/27 04:13:21;;;;;;;64.68;29.00;;;;;;;1.70;88.35;95247.97;5035042;28;20618;-72
2021/12/27 04:15:48;;;;;;;67.38;29.13;;;;;;;1.72;88.50;95240.44;5032362;28;20046;-72
2021/12/27 04:18:15;;;;;;;64.95;29.85;;;;;;;1.77;88.62;95240.34;5032027;28;20049;-72
2021/12/27 04:20:43;;;;;;;58.70;27.65;;;;;;;1.74;88.34;95242.81;5032599;28;20107;-72
2021/12/27 04:23:09;;;;;;;63.20;29.80;;;;;;;1.69;88.18;95241.00;5031643;28;20053;-72
2021/12/27 04:25:36;;;;;;;60.78;29.20;;;;;;;1.64;88.52;95233.00;5032276;28;20049;-72
2021/12/27 04:28:03;;;;;;;61.03;29.27;;;;;;;1.63;88.49;95236.00;5031935;28;20065;-72
2021/12/27 04:30:30;;;;;;;61.25;28.77;;;;;;;1.65;88.68;95234.59;5032062;28;20038;-73
2021/12/27 04:32:57;;;;;;;64.97;29.25;;;;;;;1.69;88.58;95230.28;5032029;28;20420;-72
2021/12/27 04:35:23;;;;;;;65.97;31.25;;;;;;;1.73;88.60;95236.66;5032027;28;20500;-72
2021/12/27 04:37:51;;;;;;;66.93;30.55;;;;;;;1.73;88.63;95238.53;5032211;28;20053;-73
2021/12/27 04:40:21;;;;;;;69.53;30.90;;;;;;;1.72;88.71;95237.75;5031635;28;20431;-72
2021/12/27 04:42:51;;;;;;;65.28;29.95;;;;;;;1.72;88.38;95235.06;5033533;28;20049;-72
2021/12/27 04:45:18;;;;;;;67.93;30.77;;;;;;;1.70;88.44;95237.22;5031451;28;20053;-72
2021/12/27 04:47:45;;;;;;;66.25;30.55;;;;;;;1.69;88.47;95235.63;5032060;28;20084;-73
2021/12/27 04:50:12;;;;;;;63.65;31.13;;;;;;;1.65;88.67;95234.59;5031680;28;20046;-72
2021/12/27 04:52:39;;;;;;;65.18;30.15;;;;;;;1.65;88.57;95237.28;5031672;28;20074;-73
2021/12/27 04:55:08;;;;;;;65.25;29.60;;;;;;;1.63;88.43;95236.78;5031471;28;20064;-72
2021/12/27 04:57:35;;;;;;;67.75;30.48;;;;;;;1.67;88.64;95242.34;5031819;28;20053;-73
2021/12/27 05:00:02;;;;;;;64.10;30.45;;;;;;;1.65;88.55;95242.66;5031777;28;20411;-73
2021/12/27 05:02:28;;;;;;;64.97;29.23;;;;;;;1.66;88.53;95230.84;5031420;28;20048;-72
2021/12/27 05:04:55;;;;;;;62.03;30.75;;;;;;;1.67;88.81;95235.13;5031786;28;20057;-72
2021/12/27 05:07:21;;;;;;;65.15;29.83;;;;;;;1.69;88.64;95232.16;5030964;28;20049;-72
2021/12/27 05:09:48;;;;;;;65.05;30.45;;;;;;;1.70;88.67;95234.53;5031664;28;20041;-73
2021/12/27 05:12:16;;;;;;;67.00;29.92;;;;;;;1.69;88.76;95235.63;5032595;28;20416;-72
2021/12/27 05:14:42;;;;;;;64.90;30.27;;;;;;;1.73;88.82;95230.50;5031498;28;20056;-73
2021/12/27 05:17:09;;;;;;;62.08;29.70;;;;;;;1.74;88.27;95237.47;5030928;28;20053;-72
2021/12/27 05:19:35;;;;;;;59.42;29.15;;;;;;;1.70;88.25;95237.22;5031624;28;20056;-73
2021/12/27 05:22:02;;;;;;;64.63;29.55;;;;;;;1.73;88.47;95233.97;5030619;28;20061;-72
2021/12/27 05:24:28;;;;;;;68.10;30.10;;;;;;;1.76;88.34;95240.63;5031387;28;20037;-73
2021/12/27 05:26:56;;;;;;;67.15;30.48;;;;;;;1.80;88.32;95245.13;5031307;28;20046;-73
2021/12/27 05:29:24;;;;;;;67.47;29.98;;;;;;;1.80;88.04;95236.28;5030970;28;20050;-72
2021/12/27 05:31:51;;;;;;;68.05;30.90;;;;;;;1.80;88.08;95236.28;5031294;28;20049;-73
2021/12/27 05:34:17;;;;;;;73.32;33.70;;;;;;;1.79;88.17;95230.13;5030795;28;20045;-72
2021/12/27 05:36:44;;;;;;;77.55;34.05;;;;;;;1.78;88.01;95228.53;5031150;28;20053;-72
2021/12/27 05:39:15;;;;;;;75.82;34.97;;;;;;;1.80;88.05;95231.72;5030710;28;20053;-72
2021/12/27 05:41:42;;;;;;;77.60;35.97;;;;;;;1.83;88.18;95228.47;5032573;28;20456;-73
2021/12/27 05:44:08;;;;;;;64.38;31.73;;;;;;;1.88;88.16;95221.41;5030544;28;20045;-73
2021/12/27 05:46:36;;;;;;;73.75;33.00;;;;;;;1.92;88.21;95233.97;5031482;28;20049;-72
2021/12/27 05:49:03;;;;;;;60.50;29.33;;;;;;;1.96;87.67;95242.25;5030106;28;20408;-72
2021/12/27 05:51:29;;;;;;;67.68;30.42;;;;;;;1.98;88.05;95242.75;5030964;28;20045;-72
2021/12/27 05:53:56;;;;;;;66.47;32.15;;;;;;;1.99;87.96;95239.00;5030846;28;20693;-72
2021/12/27 05:56:22;;;;;;;69.13;32.42;;;;;;;2.02;87.80;95233.03;5030562;28;20053;-72
2021/12/27 05:58:49;;;;;;;65.75;30.77;;;;;;;2.03;87.79;95234.63;5030977;28;20049;-72
2021/12/27 06:01:15;;;;;;;70.72;31.35;;;;;;;2.03;87.88;95234.63;5030819;28;20050;-72
2021/12/27 06:03:43;;;;;;;71.78;31.13;;;;;;;2.04;87.86;95230.88;5030813;28;20385;-72
2021/12/27 06:06:10;;;;;;;68.25;31.88;;;;;;;2.03;87.89;95230.03;5030412;28;20046;-72
2021/12/27 06:08:37;;;;;;;67.85;32.03;;;;;;;2.10;88.25;95229.69;5030908;28;20053;-72
2021/12/27 06:11:03;;;;;;;69.70;32.03;;;;;;;2.09;87.85;95220.84;5030782;28;20427;-71
2021/12/27 06:13:30;;;;;;;64.10;30.05;;;;;;;2.03;87.31;95213.13;5031944;28;20416;-72
2021/12/27 06:15:56;;;;;;;64.07;30.85;;;;;;;1.92;87.03;95211.69;5031210;28;20042;-72
2021/12/27 06:18:24;;;;;;;60.70;30.13;;;;;;;1.83;87.00;95215.03;5030364;28;20056;-72
2021/12/27 06:20:52;;;;;;;62.78;30.88;;;;;;;1.76;87.28;95214.59;5030889;28;20515;-72
2021/12/27 06:23:18;;;;;;;63.47;30.20;;;;;;;1.75;87.33;95218.38;5029911;28;20061;-72
2021/12/27 06:25:45;;;;;;;63.63;30.65;;;;;;;1.72;87.58;95224.34;5030751;28;20045;-72
2021/12/27 06:28:12;;;;;;;72.97;31.10;;;;;;;1.72;87.88;95229.69;5030312;28;20042;-72
2021/12/27 06:30:39;;;;;;;65.65;31.25;;;;;;;1.78;87.83;95223.16;5030744;28;20057;-73
2021/12/27 06:33:06;;;;;;;61.72;28.85;;;;;;;1.80;88.01;95228.25;5030403;28;20053;-72
2021/12/27 06:35:33;;;;;;;65.30;29.55;;;;;;;1.79;87.80;95219.41;5030667;28;20052;-72
2021/12/27 06:38:01;;;;;;;64.63;29.88;;;;;;;1.77;87.63;95228.81;5030679;28;20049;-72
2021/12/27 06:40:28;;;;;;;67.30;30.80;;;;;;;1.76;87.76;95219.97;5030665;28;20045;-72
2021/12/27 06:42:55;;;;;;;60.45;30.75;;;;;;;1.80;88.17;95220.97;5032112;28;20045;-72
2021/12/27 06:45:22;;;;;;;64.10;30.50;;;;;;;1.86;88.09;95223.59;5030193;28;21016;-72
2021/12/27 06:47:49;;;;;;;66.88;30.20;;;;;;;1.83;87.96;95204.31;5030568;28;20049;-72
2021/12/27 06:50:16;;;;;;;69.00;30.88;;;;;;;1.83;88.04;95204.31;5030084;28;20049;-72
2021/12/27 06:52:43;;;;;;;66.88;30.77;;;;;;;1.88;87.95;95199.94;5030537;28;20415;-73
2021/12/27 06:55:12;;;;;;;67.82;32.80;;;;;;;1.90;87.96;95197.78;5030292;28;20038;-73
2021/12/27 06:57:40;;;;;;;61.95;29.67;;;;;;;1.90;87.92;95203.94;5030532;28;20542;-73
2021/12/27 07:00:09;;;;;;;64.40;30.52;;;;;;;1.91;87.94;95210.09;5031253;28;20658;-72
2021/12/27 07:02:36;;;;;;;61.08;30.08;;;;;;;1.87;87.60;95219.81;5033902;28;20408;-73
2021/12/27 07:05:02;;;;;;;64.78;30.08;;;;;;;1.77;87.16;95216.19;5033241;28;20443;-72
2021/12/27 07:07:29;;;;;;;68.45;31.20;;;;;;;1.72;87.23;95220.81;5033681;28;20052;-73
2021/12/27 07:09:55;;;;;;;63.88;28.17;;;;;;;1.67;87.38;95216.34;5033944;28;20133;-73
2021/12/27 07:12:24;;;;;;;62.58;29.48;;;;;;;1.63;87.28;95220.69;5034985;28;20053;-73
2021/12/27 07:14:50;;;;;;;65.30;30.52;;;;;;;1.61;87.31;95227.41;5033840;28;20410;-73
2021/12/27 07:17:18;;;;;;;69.97;31.48;;;;;;;1.58;87.36;95218.06;5033092;28;20041;-73
2021/12/27 07:19:44;;;;;;;73.40;32.17;;;;;;;1.55;87.45;95218.63;5033444;28;20056;-73
2021/12/27 07:22:11;;;;;;;62.67;31.52;;;;;;;1.53;87.58;95212.78;5033039;28;20053;-73
2021/12/27 07:24:37;;;;;;;71.40;32.20;;;;;;;1.54;87.79;95209.00;5033558;28;20531;-72
2021/12/27 07:27:04;;;;;;;73.65;32.53;;;;;;;1.52;87.87;95213.88;5033057;28;20420;-72
2021/12/27 07:29:32;;;;;;;71.05;31.63;;;;;;;1.53;88.09;95221.63;5033298;28;20041;-72
2021/12/27 07:31:59;;;;;;;69.85;31.45;;;;;;;1.52;88.16;95214.66;5033247;28;20049;-73
2021/12/27 07:34:26;;;;;;;72.63;32.25;;;;;;;1.56;88.23;95217.53;5032847;28;20400;-72
2021/12/27 07:36:54;;;;;;;73.57;32.15;;;;;;;1.58;88.00;95218.06;5033211;28;20048;-72
2021/12/27 07:39:22;;;;;;;68.55;32.47;;;;;;;1.56;87.88;95221.03;5032846;28;20492;-72
2021/12/27 07:41:49;;;;;;;71.00;31.83;;;;;;;1.50;87.76;95210.66;5034820;28;20045;-73
2021/12/27 07:44:16;;;;;;;67.50;31.65;;;;;;;1.48;87.84;95202.09;5032943;28;20090;-72
2021/12/27 07:46:46;;;;;;;69.57;31.65;;;;;;;1.47;87.94;95205.88;5032960;28;20053;-73
2021/12/27 07:49:14;;;;;;;72.72;31.95;;;;;;;1.49;88.43;95206.38;5032482;28;20117;-73
2021/12/27 07:51:40;;;;;;;73.53;32.75;;;;;;;1.52;88.34;95203.13;5032890;28;20049;-72
2021/12/27 07:54:07;;;;;;;74.00;33.38;;;;;;;1.53;88.54;95202.84;5032651;28;20041;-72
2021/12/27 07:56:34;;;;;;;72.15;32.88;;;;;;;1.61;88.50;95195.22;5032907;28;20046;-72
2021/12/27 07:59:04;;;;;;;72.53;31.88;;;;;;;1.69;88.62;95197.28;5032891;28;20049;-72
2021/12/27 08:01:31;;;;;;;71.07;32.50;;;;;;;1.70;88.66;95196.97;5032848;28;20045;-72
2021/12/27 08:03:59;;;;;;;67.55;32.50;;;;;;;1.72;88.67;95197.50;5032502;28;20057;-73
2021/12/27 08:06:25;;;;;;;66.50;32.03;;;;;;;1.73;88.31;95199.09;5032396;28;20053;-72
2021/12/27 08:08:52;;;;;;;68.00;31.70;;;;;;;1.78;88.31;95190.97;5032670;28;20054;-72
2021/12/27 08:11:19;;;;;;;70.35;32.53;;;;;;;1.94;88.75;95193.44;5033578;28;20053;-72
2021/12/27 08:13:45;;;;;;;68.07;32.70;;;;;;;2.27;88.89;95192.34;5032575;28;20056;-73
2021/12/27 08:16:12;;;;;;;64.43;30.85;;;;;;;2.64;89.27;95190.66;5031716;28;20049;-72
2021/12/27 08:18:41;;;;;;;56.38;28.02;;;;;;;2.74;87.82;95195.84;5032430;28;20060;-73
2021/12/27 08:21:09;;;;;;;52.65;26.63;;;;;;;2.65;86.56;95189.56;5032207;28;20045;-72
2021/12/27 08:23:35;;;;;;;55.95;27.52;;;;;;;2.68;86.53;95190.88;5032178;28;20484;-72
2021/12/27 08:26:02;;;;;;;55.45;28.27;;;;;;;2.72;86.88;95192.69;5032085;28;20049;-71
2021/12/27 08:28:28;;;;;;;54.58;27.75;;;;;;;2.81;87.16;95182.81;5032547;28;20416;-73
2021/12/27 08:30:55;;;;;;;54.13;26.90;;;;;;;2.90;86.49;95180.25;5032189;28;20045;-72
2021/12/27 08:33:21;;;;;;;52.30;26.85;;;;;;;2.98;85.85;95192.22;5032056;28;20045;-72
2021/12/27 08:35:48;;;;;;;49.55;25.75;;;;;;;3.00;85.58;95181.94;5032317;28;20056;-72
2021/12/27 08:38:18;;;;;;;51.33;27.13;;;;;;;3.00;85.63;95176.56;5031915;28;20049;-72
2021/12/27 08:40:44;;;;;;;51.70;26.25;;;;;;;3.01;85.02;95172.78;5032319;28;20099;-72
2021/12/27 08:43:11;;;;;;;49.42;26.40;;;;;;;2.99;84.73;95183.84;5033075;28;20064;-72
2021/12/27 08:45:38;;;;;;;49.17;24.08;;;;;;;2.90;84.08;95184.81;5032106;28;20057;-72
2021/12/27 08:48:05;;;;;;;51.50;26.30;;;;;;;2.86;84.43;95181.91;5031702;28;20046;-72
2021/12/27 08:50:32;;;;;;;52.47;26.25;;;;;;;2.83;85.27;95171.78;5032085;28;20045;-72
2021/12/27 08:52:58;;;;;;;48.53;25.70;;;;;;;2.92;84.80;95169.19;5032043;28;20049;-72
2021/12/27 08:55:26;;;;;;;48.80;25.48;;;;;;;2.93;84.52;95178.88;5031264;28;20045;-72
2021/12/27 08:57:52;;;;;;;49.47;26.38;;;;;;;2.92;84.37;95166.50;5032023;28;20049;-72
2021/12/27 09:00:19;;;;;;;52.50;25.90;;;;;;;2.88;84.78;95167.09;5031250;28;20041;-72
2021/12/27 09:02:46;;;;;;;55.47;26.92;;;;;;;2.89;84.92;95170.59;5031523;28;20052;-72
2021/12/27 09:05:13;;;;;;;50.72;26.10;;;;;;;2.94;85.20;95167.00;5031261;28;20045;-72
2021/12/27 09:07:39;;;;;;;51.55;28.33;;;;;;;2.98;85.19;95168.00;5031603;28;20045;-73
2021/12/27 09:10:07;;;;;;;50.05;26.45;;;;;;;3.01;85.31;95172.78;5031177;28;20076;-72
2021/12/27 09:12:35;;;;;;;52.53;27.50;;;;;;;2.99;84.99;95170.41;5033331;28;20045;-72
2021/12/27 09:15:02;;;;;;;53.42;26.75;;;;;;;3.00;84.92;95165.81;5031602;28;20049;-74
2021/12/27 09:17:28;;;;;;;48.05;25.58;;;;;;;2.97;85.19;95172.56;5031261;28;20041;-72
2021/12/27 09:19:55;;;;;;;47.72;25.00;;;;;;;2.95;84.91;95165.91;5031684;28;20052;-74
2021/12/27 09:22:21;;;;;;;53.30;27.48;;;;;;;2.96;85.23;95162.91;5030010;28;20050;-72
2021/12/27 09:24:50;;;;;;;58.35;27.27;;;;;;;3.02;85.11;95164.41;5031181;28;20060;-72
2021/12/27 09:27:17;;;;;;;47.88;25.60;;;;;;;3.08;85.11;95160.53;5031123;28;20448;-72
2021/12/27 09:29:45;;;;;;;48.70;25.92;;;;;;;3.10;84.86;95152.97;5031521;28;20056;-72
2021/12/27 09:32:12;;;;;;;45.33;24.35;;;;;;;3.14;84.06;95156.66;5030715;28;20038;-72
2021/12/27 09:34:40;;;;;;;41.92;23.10;;;;;;;3.10;84.02;95152.97;5031353;28;20049;-74
2021/12/27 09:37:07;;;;;;;48.30;24.88;;;;;;;3.18;83.87;95150.66;5030798;28;20515;-74
2021/12/27 09:39:34;;;;;;;42.28;22.98;;;;;;;3.29;84.01;95142.09;5031081;28;20041;-74
2021/12/27 09:42:01;;;;;;;40.95;22.35;;;;;;;3.34;83.24;95147.38;5039211;28;20072;-72
2021/12/27 09:44:29;;;;;;;40.78;23.23;;;;;;;3.31;82.75;95145.25;5050650;28;20048;-74
2021/12/27 09:46:57;;;;;;;37.92;21.15;;;;;;;3.28;82.33;95150.44;5050920;28;20454;-72
2021/12/27 09:49:29;;;;;;;39.67;22.48;;;;;;;3.21;81.35;95150.84;5050591;28;20487;-72
2021/12/27 09:51:56;;;;;;;39.42;21.42;;;;;;;3.18;81.73;95150.66;5050978;28;20132;-72
2021/12/27 09:54:24;;;;;;;44.15;25.33;;;;;;;3.12;81.46;95152.66;5050561;28;20048;-72
2021/12/27 09:56:51;;;;;;;41.17;22.10;;;;;;;3.02;81.66;95150.16;5051054;28;20048;-72
2021/12/27 09:59:18;;;;;;;52.55;23.63;;;;;;;2.91;81.56;95146.88;5050505;28;20403;-72
2021/12/27 10:01:44;;;;;;;44.30;21.52;;;;;;;2.83;82.01;95139.53;5050987;28;20052;-72
2021/12/27 10:04:12;;;;;;;40.85;21.67;;;;;;;2.67;82.01;95130.16;5050421;28;20056;-72
2021/12/27 10:06:39;;;;;;;40.50;21.25;;;;;;;2.57;82.84;95128.44;5050969;28;20056;-73
2021/12/27 10:09:06;;;;;;;41.20;21.33;;;;;;;2.44;82.92;95121.94;5050382;28;20052;-72
2021/12/27 10:11:34;;;;;;;42.90;22.92;;;;;;;2.38;83.18;95120.44;5047893;28;20049;-74
2021/12/27 10:14:05;;;;;;;45.17;23.75;;;;;;;2.40;83.96;95128.19;5030769;28;20052;-72
2021/12/27 10:16:34;;;;;;;44.90;23.05;;;;;;;2.45;84.54;95123.53;5030444;28;20037;-73
2021/12/27 10:19:04;;;;;;;48.83;25.63;;;;;;;2.53;84.76;95127.44;5030968;28;20045;-72
2021/12/27 10:21:33;;;;;;;48.00;25.00;;;;;;;2.56;84.66;95132.25;5030339;28;20477;-72
2021/12/27 10:24:09;;;;;;;54.03;24.73;;;;;;;2.56;84.54;95133.03;5030668;28;20046;-72
2021/12/27 10:26:37;;;;;;;63.65;25.10;;;;;;;2.56;84.83;95129.53;5030608;28;20037;-72
2021/12/27 10:29:09;;;;;;;49.72;24.00;;;;;;;2.57;84.91;95129.25;5029964;28;20488;-72
2021/12/27 10:32:04;;;;;;;56.38;26.17;;;;;;;2.59;85.08;95123.56;5030525;28;20056;-72
2021/12/27 10:34:33;;;;;;;61.05;26.35;;;;;;;2.64;85.30;95128.84;5032473;28;20041;-73
2021/12/27 10:37:06;;;;;;;55.75;26.33;;;;;;;2.68;85.30;95124.47;5034341;28;20053;-72
2021/12/27 10:39:51;;;;;;;58.33;26.27;;;;;;;2.70;85.16;95114.22;5034142;28;20049;-72
2021/12/27 10:42:20;;;;;;;56.70;28.52;;;;;;;2.73;85.19;95119.00;5035412;28;20526;-75
2021/12/27 10:44:48;;;;;;;51.88;26.00;;;;;;;2.79;85.50;95111.63;5033988;28;20053;-72
2021/12/27 10:47:31;;;;;;;51.08;26.60;;;;;;;2.83;85.48;95109.94;5033768;28;20417;-72
2021/12/27 10:50:03;;;;;;;51.55;26.10;;;;;;;2.87;85.18;95108.22;5033917;28;20420;-72
2021/12/27 10:52:49;;;;;;;49.45;24.40;;;;;;;2.80;84.71;95111.31;5033927;28;20046;-72
2021/12/27 10:55:19;;;;;;;44.00;22.88;;;;;;;2.73;84.21;95119.00;5033456;28;20419;-72
2021/12/27 10:57:45;;;;;;;43.13;23.80;;;;;;;2.74;84.24;95111.72;5033936;28;20060;-72
2021/12/27 11:00:18;;;;;;;46.38;24.48;;;;;;;2.77;85.11;95114.63;5033686;28;20068;-72
2021/12/27 11:02:44;;;;;;;44.23;23.70;;;;;;;2.80;85.04;95102.47;5033893;28;20053;-72
2021/12/27 11:05:16;;;;;;;51.05;25.13;;;;;;;2.84;85.25;95101.56;5033386;28;20283;-72
2021/12/27 11:07:42;;;;;;;51.13;25.40;;;;;;;2.90;85.27;95101.47;5033945;28;20056;-72
2021/12/27 11:10:11;;;;;;;51.13;26.23;;;;;;;2.96;85.26;95102.97;5033226;28;20052;-72
2021/12/27 11:12:38;;;;;;;50.35;26.17;;;;;;;3.03;85.43;95093.41;5035198;28;20056;-72
2021/12/27 11:15:09;;;;;;;49.22;25.45;;;;;;;3.17;85.45;95096.06;5033387;28;20057;-72
2021/12/27 11:17:36;;;;;;;44.17;23.88;;;;;;;3.23;84.33;95092.16;5033880;28;20046;-73
2021/12/27 11:20:04;;;;;;;45.55;25.08;;;;;;;3.24;83.81;95093.78;5033454;28;20042;-71
2021/12/27 11:22:31;;;;;;;45.45;24.52;;;;;;;3.29;83.96;95082.91;5033452;28;20056;-72
2021/12/27 11:25:03;;;;;;;42.95;25.10;;;;;;;3.36;84.45;95077.91;5033494;28;20057;-72
2021/12/27 11:27:34;;;;;;;45.53;25.80;;;;;;;3.48;85.12;95068.50;5033183;28;20139;-72